Terminal Aerodrome Forecast
Issued by NWS

Home | Current Version | Previous Version | Graphics & Text | Print | Product List | Glossary On
Versions: 1 2 3 4 5 6 7 8 9 10 11 12
618
FTUS45 KGGW 120520
TAFSDY
TAF
KSDY 120520Z 1206/1306 VRB04KT P6SM BKN030
     FM120800 03006KT P6SM VCSH OVC025
     FM121500 06008KT P6SM BKN080
     FM121800 09007KT P6SM BKN050
     FM130000 11009KT P6SM VCSH OVC020
      AMD LTD TO CLD VIS AND WIND=

USA.gov is the U.S. government's official web portal to all federal, state and local government web resources and services.